Time;durP1;ratioP1;P1;durP2;ratioP2;P2;SDS_P1;SDS_P2;PMS_P1;PMS_P2;Temp;Humidity;BMP_temperature;BMP_pressure;BME280_temperature;BME280_humidity;BME280_pressure;Samples;Min_cycle;Max_cycle;Signal;HPM_P1;HPM_P2
2023/12/20 00:03:33;;;;;;;15.13;8.40;;;;;;;;;;10287844;28;20047;-78
2023/12/20 00:08:34;;;;;;;15.63;7.70;;;;;;;;;;10287110;28;20118;-77
2023/12/20 00:13:35;;;;;;;14.77;7.83;;;;;;;;;;10285473;28;20053;-78
2023/12/20 00:18:36;;;;;;;15.67;8.53;;;;;;;;;;10288433;28;20402;-79
2023/12/20 00:23:37;;;;;;;14.60;8.43;;;;;;;;;;10285101;28;20129;-80
2023/12/20 00:28:38;;;;;;;23.37;9.93;;;;;;;;;;10288421;28;20031;-77
2023/12/20 00:33:39;;;;;;;19.30;9.67;;;;;;;;;;10289808;28;20096;-79
2023/12/20 00:38:40;;;;;;;21.23;11.27;;;;;;;;;;10291660;28;20443;-79
2023/12/20 00:43:48;;;;;;;21.90;10.40;;;;;;;;;;10292284;28;20544;-79
2023/12/20 00:48:49;;;;;;;20.50;11.20;;;;;;;;;;10286106;28;20073;-80
2023/12/20 00:53:54;;;;;;;16.83;9.43;;;;;;;;;;10285628;28;20113;-79
2023/12/20 00:58:55;;;;;;;23.30;11.43;;;;;;;;;;10287057;28;20490;-80
2023/12/20 01:03:56;;;;;;;22.80;12.57;;;;;;;;;;10286394;28;20121;-78
2023/12/20 01:08:57;;;;;;;16.33;9.60;;;;;;;;;;10305083;28;20074;-78
2023/12/20 01:13:58;;;;;;;15.37;9.17;;;;;;;;;;10284849;28;20035;-78
2023/12/20 01:18:59;;;;;;;23.97;10.80;;;;;;;;;;10290270;28;20459;-78
2023/12/20 01:24:00;;;;;;;20.57;10.73;;;;;;;;;;10283649;28;20047;-77
2023/12/20 01:29:01;;;;;;;16.80;8.57;;;;;;;;;;10286070;28;20479;-77
2023/12/20 01:34:02;;;;;;;25.73;13.47;;;;;;;;;;10288999;28;20071;-79
2023/12/20 01:39:04;;;;;;;22.97;10.57;;;;;;;;;;10298712;28;20103;-78
2023/12/20 01:44:05;;;;;;;20.50;10.60;;;;;;;;;;10293884;28;20038;-79
2023/12/20 01:49:06;;;;;;;19.77;10.33;;;;;;;;;;10290463;28;20055;-79
2023/12/20 01:54:07;;;;;;;21.47;11.40;;;;;;;;;;10292464;28;20026;-78
2023/12/20 01:59:09;;;;;;;21.57;11.73;;;;;;;;;;10282318;28;20039;-78
2023/12/20 02:04:10;;;;;;;17.57;10.13;;;;;;;;;;10297830;28;20035;-79
2023/12/20 02:09:11;;;;;;;16.43;9.27;;;;;;;;;;10305335;28;20671;-80
2023/12/20 02:14:12;;;;;;;17.77;8.37;;;;;;;;;;10308908;28;20034;-79
2023/12/20 02:19:15;;;;;;;16.90;8.70;;;;;;;;;;10291397;28;20475;-78
2023/12/20 02:24:17;;;;;;;16.47;9.13;;;;;;;;;;10301782;28;20031;-79
2023/12/20 02:29:18;;;;;;;16.17;8.03;;;;;;;;;;10289741;28;20046;-80
2023/12/20 02:34:19;;;;;;;15.17;8.20;;;;;;;;;;10290974;28;20407;-78
2023/12/20 02:39:20;;;;;;;15.67;8.17;;;;;;;;;;10304301;28;20038;-79
2023/12/20 02:44:21;;;;;;;14.57;8.23;;;;;;;;;;10290402;28;20033;-79
2023/12/20 02:49:22;;;;;;;16.97;8.43;;;;;;;;;;10296664;28;20031;-79
2023/12/20 02:54:23;;;;;;;16.60;8.57;;;;;;;;;;10293366;28;20142;-78
2023/12/20 02:59:24;;;;;;;15.57;8.07;;;;;;;;;;10291417;28;20123;-79
2023/12/20 03:04:25;;;;;;;13.73;8.07;;;;;;;;;;10289629;28;20495;-79
2023/12/20 03:09:26;;;;;;;19.03;10.40;;;;;;;;;;10289555;28;20031;-80
2023/12/20 03:14:27;;;;;;;19.67;9.93;;;;;;;;;;10293109;28;20126;-80
2023/12/20 03:19:29;;;;;;;20.77;10.40;;;;;;;;;;10287237;28;20035;-79
2023/12/20 03:24:30;;;;;;;19.70;9.77;;;;;;;;;;10288779;28;20041;-79
2023/12/20 03:29:31;;;;;;;17.10;9.17;;;;;;;;;;10287487;28;20510;-79
2023/12/20 03:34:32;;;;;;;21.30;10.73;;;;;;;;;;10287914;28;20033;-79
2023/12/20 03:39:33;;;;;;;21.07;9.97;;;;;;;;;;10288912;28;20039;-80
2023/12/20 03:44:34;;;;;;;18.77;10.40;;;;;;;;;;10289729;28;20770;-79
2023/12/20 03:49:36;;;;;;;21.30;10.03;;;;;;;;;;10304545;28;20053;-79
2023/12/20 03:54:37;;;;;;;23.97;13.63;;;;;;;;;;10294136;28;20052;-80
2023/12/20 03:59:39;;;;;;;26.10;13.37;;;;;;;;;;10300473;28;20035;-80
2023/12/20 04:04:39;;;;;;;21.13;10.97;;;;;;;;;;10298133;28;20375;-80
2023/12/20 04:09:41;;;;;;;23.13;12.57;;;;;;;;;;10286314;28;20045;-80
2023/12/20 04:14:42;;;;;;;29.20;14.43;;;;;;;;;;10287204;28;20094;-79
2023/12/20 04:19:43;;;;;;;49.73;20.73;;;;;;;;;;10287090;28;20431;-79
2023/12/20 04:24:51;;;;;;;33.87;16.20;;;;;;;;;;10286723;28;20031;-81
2023/12/20 04:30:04;;;;;;;27.43;14.23;;;;;;;;;;10287787;28;20034;-79
2023/12/20 04:35:07;;;;;;;24.43;14.00;;;;;;;;;;10291852;28;20065;-79
2023/12/20 04:40:08;;;;;;;32.83;16.63;;;;;;;;;;10290531;28;20033;-81
2023/12/20 04:45:09;;;;;;;31.93;16.90;;;;;;;;;;10289080;28;20062;-81
2023/12/20 04:50:13;;;;;;;34.83;17.33;;;;;;;;;;10288536;28;20030;-80
2023/12/20 04:55:14;;;;;;;37.43;18.30;;;;;;;;;;10284679;28;20077;-80
2023/12/20 05:00:15;;;;;;;39.33;20.33;;;;;;;;;;10287290;28;20027;-80
2023/12/20 05:05:17;;;;;;;47.53;24.53;;;;;;;;;;10283444;28;20688;-79
2023/12/20 05:10:18;;;;;;;46.63;26.57;;;;;;;;;;10297863;28;20065;-82
2023/12/20 05:15:19;;;;;;;48.03;26.10;;;;;;;;;;10293102;28;20429;-79
2023/12/20 05:20:20;;;;;;;41.80;20.73;;;;;;;;;;10296984;28;20505;-80
2023/12/20 05:25:21;;;;;;;34.43;18.97;;;;;;;;;;10284121;28;20019;-82
2023/12/20 05:30:23;;;;;;;35.47;18.77;;;;;;;;;;10291189;28;20034;-80
2023/12/20 05:35:24;;;;;;;32.33;18.70;;;;;;;;;;10290324;28;20049;-81
2023/12/20 05:40:25;;;;;;;32.97;17.57;;;;;;;;;;10292257;28;20043;-80
2023/12/20 05:45:26;;;;;;;37.50;19.53;;;;;;;;;;10287200;28;20058;-80
2023/12/20 05:50:27;;;;;;;39.63;19.97;;;;;;;;;;10291846;28;20541;-80
2023/12/20 05:55:28;;;;;;;35.90;19.70;;;;;;;;;;10286003;28;20824;-80
2023/12/20 06:00:35;;;;;;;41.90;23.30;;;;;;;;;;10301294;28;20066;-81
2023/12/20 06:05:36;;;;;;;39.40;22.47;;;;;;;;;;10304536;28;20399;-80
2023/12/20 06:10:37;;;;;;;44.37;23.83;;;;;;;;;;10289161;28;20118;-82
2023/12/20 06:15:39;;;;;;;50.07;26.83;;;;;;;;;;10292062;28;20045;-82
2023/12/20 06:20:40;;;;;;;42.23;23.40;;;;;;;;;;10296477;28;20073;-82
2023/12/20 06:25:41;;;;;;;48.93;27.13;;;;;;;;;;10299876;28;20106;-81
2023/12/20 06:30:43;;;;;;;41.63;22.17;;;;;;;;;;10304869;28;20026;-82
2023/12/20 06:35:44;;;;;;;41.67;24.27;;;;;;;;;;10282101;28;20039;-82
2023/12/20 06:40:52;;;;;;;46.97;25.80;;;;;;;;;;10284479;28;20038;-82
2023/12/20 06:45:53;;;;;;;47.47;26.47;;;;;;;;;;10301858;28;20050;-82
2023/12/20 06:50:54;;;;;;;51.30;28.67;;;;;;;;;;10286051;28;20027;-82
2023/12/20 06:55:56;;;;;;;55.83;29.40;;;;;;;;;;10297763;28;20046;-84
2023/12/20 07:00:57;;;;;;;57.80;29.97;;;;;;;;;;10266815;28;20046;-82
2023/12/20 07:05:58;;;;;;;57.13;30.23;;;;;;;;;;10269958;28;20538;-83
2023/12/20 07:10:59;;;;;;;56.40;28.23;;;;;;;;;;10283492;28;20062;-83
2023/12/20 07:16:00;;;;;;;47.87;26.43;;;;;;;;;;10290839;28;20070;-82
2023/12/20 07:21:01;;;;;;;52.23;25.83;;;;;;;;;;10289090;28;20038;-83
2023/12/20 07:26:04;;;;;;;45.93;23.47;;;;;;;;;;10283160;28;20058;-83
2023/12/20 07:31:05;;;;;;;41.07;23.87;;;;;;;;;;10301510;28;20077;-83
2023/12/20 07:36:06;;;;;;;42.73;22.63;;;;;;;;;;10290420;28;20110;-82
2023/12/20 07:41:07;;;;;;;39.33;22.00;;;;;;;;;;10291785;28;20030;-84
2023/12/20 07:46:09;;;;;;;38.57;22.30;;;;;;;;;;10288833;28;20517;-84
2023/12/20 07:51:10;;;;;;;42.00;22.67;;;;;;;;;;10278716;28;20122;-82
2023/12/20 07:56:17;;;;;;;42.23;21.70;;;;;;;;;;10292659;28;20096;-83
2023/12/20 08:01:18;;;;;;;46.43;25.27;;;;;;;;;;10292533;28;20474;-84
2023/12/20 08:06:19;;;;;;;51.93;25.80;;;;;;;;;;10287222;28;20447;-84
2023/12/20 08:11:20;;;;;;;42.80;22.93;;;;;;;;;;10269244;28;20023;-83
2023/12/20 08:16:21;;;;;;;38.90;22.90;;;;;;;;;;10291758;28;20133;-83
2023/12/20 08:21:22;;;;;;;39.97;21.87;;;;;;;;;;10289965;28;20027;-85
2023/12/20 08:26:24;;;;;;;38.10;21.60;;;;;;;;;;10286365;28;20414;-84
2023/12/20 08:31:26;;;;;;;32.30;19.07;;;;;;;;;;10292541;28;20038;-85
2023/12/20 08:36:27;;;;;;;37.07;20.87;;;;;;;;;;10292042;28;20039;-83
2023/12/20 08:41:28;;;;;;;37.23;19.63;;;;;;;;;;10289507;28;20054;-84
2023/12/20 08:46:35;;;;;;;35.03;20.37;;;;;;;;;;10291664;28;20153;-82
2023/12/20 08:51:39;;;;;;;47.83;22.57;;;;;;;;;;10283993;28;20038;-83
2023/12/20 08:56:41;;;;;;;43.70;21.77;;;;;;;;;;10290596;28;20053;-84
2023/12/20 09:01:42;;;;;;;47.47;24.50;;;;;;;;;;10273401;28;20046;-84
2023/12/20 09:06:43;;;;;;;49.33;24.43;;;;;;;;;;10282482;28;20030;-85
2023/12/20 09:11:46;;;;;;;45.97;23.70;;;;;;;;;;10270003;28;20027;-86
2023/12/20 09:16:47;;;;;;;47.00;25.97;;;;;;;;;;10269196;28;20039;-84
2023/12/20 09:21:48;;;;;;;41.23;23.37;;;;;;;;;;10295127;28;20041;-82
2023/12/20 09:26:48;;;;;;;49.40;26.57;;;;;;;;;;10285036;28;20058;-84
2023/12/20 09:31:50;;;;;;;47.17;25.40;;;;;;;;;;10284545;28;20122;-84
2023/12/20 09:36:51;;;;;;;50.20;24.63;;;;;;;;;;10285164;28;20046;-84
2023/12/20 09:42:01;;;;;;;51.43;26.70;;;;;;;;;;10279340;28;20118;-84
2023/12/20 09:47:05;;;;;;;56.23;27.90;;;;;;;;;;10300396;28;20059;-87
2023/12/20 09:52:07;;;;;;;56.80;28.57;;;;;;;;;;10278495;28;20042;-83
2023/12/20 09:57:08;;;;;;;50.73;27.57;;;;;;;;;;10292177;28;20035;-82
2023/12/20 10:02:14;;;;;;;52.00;26.60;;;;;;;;;;10282306;28;20138;-83
2023/12/20 10:07:16;;;;;;;48.27;25.27;;;;;;;;;;10263428;28;20042;-83
2023/12/20 10:12:17;;;;;;;42.57;22.50;;;;;;;;;;10288595;28;20035;-83
2023/12/20 10:17:18;;;;;;;60.97;35.20;;;;;;;;;;10289337;28;20042;-86
2023/12/20 10:22:19;;;;;;;59.47;33.13;;;;;;;;;;10275013;28;20031;-83
2023/12/20 10:27:20;;;;;;;64.87;31.70;;;;;;;;;;10289513;28;20038;-83
2023/12/20 10:32:25;;;;;;;76.53;36.30;;;;;;;;;;10285048;28;20073;-82
2023/12/20 10:37:26;;;;;;;60.33;30.23;;;;;;;;;;10291900;28;20047;-82
2023/12/20 10:42:27;;;;;;;85.40;37.27;;;;;;;;;;10280247;28;20484;-83
2023/12/20 10:47:28;;;;;;;84.93;40.10;;;;;;;;;;10289952;28;20101;-81
2023/12/20 10:52:30;;;;;;;57.00;29.27;;;;;;;;;;10292328;28;20027;-82
2023/12/20 10:57:31;;;;;;;55.07;29.70;;;;;;;;;;10297660;28;20093;-83
2023/12/20 11:02:33;;;;;;;52.10;26.30;;;;;;;;;;10286648;28;20033;-82
2023/12/20 11:07:37;;;;;;;52.07;26.73;;;;;;;;;;10287718;28;20490;-83
2023/12/20 11:12:45;;;;;;;51.20;27.03;;;;;;;;;;10280538;28;20034;-84
2023/12/20 11:17:46;;;;;;;46.73;25.00;;;;;;;;;;10290892;28;20101;-84
2023/12/20 11:22:54;;;;;;;54.43;26.63;;;;;;;;;;10288877;28;20398;-83
2023/12/20 11:28:17;;;;;;;48.63;25.53;;;;;;;;;;10289273;28;20039;-83
2023/12/20 11:33:22;;;;;;;35.30;19.83;;;;;;;;;;10289586;28;20146;-84
2023/12/20 11:38:24;;;;;;;46.50;23.23;;;;;;;;;;10277096;28;20046;-83
2023/12/20 11:43:34;;;;;;;43.10;20.17;;;;;;;;;;10289015;28;20037;-83
2023/12/20 11:48:36;;;;;;;41.97;20.20;;;;;;;;;;10283653;28;20252;-84
2023/12/20 11:53:37;;;;;;;52.80;27.40;;;;;;;;;;10277568;28;20134;-81
2023/12/20 11:58:38;;;;;;;44.17;23.57;;;;;;;;;;10299642;28;20042;-83
2023/12/20 12:03:40;;;;;;;35.63;20.00;;;;;;;;;;10301520;28;20034;-80
2023/12/20 12:08:42;;;;;;;44.20;21.47;;;;;;;;;;10297129;28;20045;-80
2023/12/20 12:13:43;;;;;;;43.47;22.40;;;;;;;;;;10288657;28;20073;-81
2023/12/20 12:18:44;;;;;;;41.80;22.70;;;;;;;;;;10291833;28;20508;-81
2023/12/20 12:23:45;;;;;;;37.53;22.37;;;;;;;;;;10299449;28;20062;-80
2023/12/20 12:28:46;;;;;;;50.63;27.47;;;;;;;;;;10301642;28;20034;-81
2023/12/20 12:33:47;;;;;;;46.77;26.20;;;;;;;;;;10304366;28;20034;-82
2023/12/20 12:38:48;;;;;;;51.17;30.20;;;;;;;;;;10303855;28;20043;-80
2023/12/20 12:43:56;;;;;;;48.80;27.67;;;;;;;;;;10290514;28;20471;-81
2023/12/20 12:48:57;;;;;;;43.37;24.13;;;;;;;;;;10300404;28;20055;-81
2023/12/20 12:54:04;;;;;;;48.57;28.27;;;;;;;;;;10298149;28;20385;-81
2023/12/20 12:59:06;;;;;;;56.23;30.83;;;;;;;;;;10271903;28;20078;-80
2023/12/20 13:04:10;;;;;;;52.83;24.93;;;;;;;;;;10283541;28;20038;-82
2023/12/20 13:09:11;;;;;;;48.57;22.87;;;;;;;;;;10281701;28;20034;-81
2023/12/20 13:14:15;;;;;;;46.00;22.30;;;;;;;;;;10279374;28;20027;-82
2023/12/20 13:19:16;;;;;;;39.27;20.27;;;;;;;;;;10285395;28;20054;-81
2023/12/20 13:24:18;;;;;;;36.43;19.73;;;;;;;;;;10296667;28;20026;-81
2023/12/20 13:29:19;;;;;;;39.47;20.67;;;;;;;;;;10296016;28;20062;-84
2023/12/20 13:34:21;;;;;;;34.13;18.77;;;;;;;;;;10299929;28;20034;-80
2023/12/20 13:39:22;;;;;;;33.43;17.63;;;;;;;;;;10284489;28;20571;-80
2023/12/20 13:44:23;;;;;;;37.23;19.17;;;;;;;;;;10282142;28;20034;-80
2023/12/20 13:49:31;;;;;;;34.20;17.87;;;;;;;;;;10307246;28;20895;-82
2023/12/20 13:54:32;;;;;;;38.10;19.00;;;;;;;;;;10294675;28;20030;-81
2023/12/20 13:59:34;;;;;;;44.43;22.13;;;;;;;;;;10293063;28;20038;-81
2023/12/20 14:04:36;;;;;;;36.07;17.80;;;;;;;;;;10273210;28;20479;-80
2023/12/20 14:09:37;;;;;;;35.83;19.00;;;;;;;;;;10267419;28;20070;-79
2023/12/20 14:14:38;;;;;;;36.40;19.00;;;;;;;;;;10278090;28;20057;-78
2023/12/20 14:19:40;;;;;;;32.40;18.50;;;;;;;;;;10290246;28;20042;-81
2023/12/20 14:24:41;;;;;;;35.57;19.17;;;;;;;;;;10276182;28;20125;-80
2023/12/20 14:29:43;;;;;;;47.60;26.70;;;;;;;;;;10293017;28;20057;-79
2023/12/20 14:34:46;;;;;;;80.90;47.60;;;;;;;;;;10278845;28;20097;-79
2023/12/20 14:39:48;;;;;;;75.90;42.87;;;;;;;;;;10287399;28;20027;-78
2023/12/20 14:44:49;;;;;;;70.90;36.17;;;;;;;;;;10285593;28;20047;-78
2023/12/20 14:49:50;;;;;;;63.23;35.17;;;;;;;;;;10285272;28;20046;-77
2023/12/20 14:54:51;;;;;;;59.70;32.80;;;;;;;;;;10288091;28;20572;-80
2023/12/20 14:59:53;;;;;;;61.23;33.47;;;;;;;;;;10281140;28;20030;-82
2023/12/20 15:04:54;;;;;;;63.60;32.50;;;;;;;;;;10297038;28;20497;-80
2023/12/20 15:09:56;;;;;;;63.33;32.77;;;;;;;;;;10268150;28;20418;-81
2023/12/20 15:14:57;;;;;;;68.97;37.20;;;;;;;;;;10291376;28;20043;-82
2023/12/20 15:19:58;;;;;;;72.90;39.00;;;;;;;;;;10289915;28;20027;-79
2023/12/20 15:25:07;;;;;;;76.80;41.20;;;;;;;;;;10284171;28;20027;-79
2023/12/20 15:30:09;;;;;;;74.50;39.27;;;;;;;;;;10289137;28;20493;-78
2023/12/20 15:35:10;;;;;;;84.87;46.50;;;;;;;;;;10291294;28;20042;-80
2023/12/20 15:40:12;;;;;;;102.63;52.07;;;;;;;;;;10285997;28;20022;-79
2023/12/20 15:45:13;;;;;;;82.43;42.50;;;;;;;;;;10293622;28;20031;-82
2023/12/20 15:50:14;;;;;;;58.13;30.60;;;;;;;;;;10300039;28;20577;-81
2023/12/20 15:55:15;;;;;;;61.73;32.43;;;;;;;;;;10300111;28;20070;-80
2023/12/20 16:00:16;;;;;;;55.70;28.80;;;;;;;;;;10288083;28;20046;-80
2023/12/20 16:05:17;;;;;;;53.40;28.20;;;;;;;;;;10299459;28;20030;-80
2023/12/20 16:10:18;;;;;;;52.07;27.97;;;;;;;;;;10296363;28;20030;-81
2023/12/20 16:15:19;;;;;;;54.00;27.57;;;;;;;;;;10271671;28;20082;-79
2023/12/20 16:20:20;;;;;;;58.97;29.77;;;;;;;;;;10288051;28;20133;-80
2023/12/20 16:25:23;;;;;;;50.23;25.07;;;;;;;;;;10285950;28;20042;-80
2023/12/20 16:30:24;;;;;;;52.57;27.60;;;;;;;;;;10275466;28;20041;-78
2023/12/20 16:35:25;;;;;;;60.53;34.17;;;;;;;;;;10300423;28;20074;-80
2023/12/20 16:40:26;;;;;;;76.13;40.30;;;;;;;;;;10283904;28;20446;-80
2023/12/20 16:45:27;;;;;;;76.40;41.37;;;;;;;;;;10285891;28;20030;-79
2023/12/20 16:50:28;;;;;;;73.53;40.07;;;;;;;;;;10284453;28;20506;-82
2023/12/20 16:55:30;;;;;;;67.93;37.13;;;;;;;;;;10286430;28;20125;-81
2023/12/20 17:00:32;;;;;;;70.10;35.73;;;;;;;;;;10267058;28;20030;-80
2023/12/20 17:05:34;;;;;;;73.20;39.63;;;;;;;;;;10293111;28;20030;-80
2023/12/20 17:10:35;;;;;;;68.53;38.47;;;;;;;;;;10289550;28;20394;-80
2023/12/20 17:15:36;;;;;;;76.73;40.87;;;;;;;;;;10280493;28;20053;-79
2023/12/20 17:20:37;;;;;;;73.20;40.47;;;;;;;;;;10292607;28;20042;-78
2023/12/20 17:25:40;;;;;;;96.27;56.40;;;;;;;;;;10289713;28;20031;-79
2023/12/20 17:30:41;;;;;;;82.00;42.73;;;;;;;;;;10292925;28;20042;-80
2023/12/20 17:35:42;;;;;;;59.03;32.67;;;;;;;;;;10290605;28;20051;-79
2023/12/20 17:40:43;;;;;;;49.57;27.83;;;;;;;;;;10292146;28;20046;-79
2023/12/20 17:45:44;;;;;;;48.07;25.87;;;;;;;;;;10268973;28;20457;-80
2023/12/20 17:50:45;;;;;;;49.37;25.57;;;;;;;;;;10287301;28;20054;-79
2023/12/20 17:55:46;;;;;;;46.47;25.00;;;;;;;;;;10301041;28;20398;-82
2023/12/20 18:00:47;;;;;;;36.90;19.67;;;;;;;;;;10300083;28;20044;-83
2023/12/20 18:05:48;;;;;;;37.97;19.30;;;;;;;;;;10303545;28;20030;-79
2023/12/20 18:10:49;;;;;;;34.50;18.03;;;;;;;;;;10292663;28;20082;-79
2023/12/20 18:15:50;;;;;;;35.03;18.70;;;;;;;;;;10294702;28;20097;-80
2023/12/20 18:20:51;;;;;;;34.10;19.60;;;;;;;;;;10298056;28;20046;-80
2023/12/20 18:25:54;;;;;;;30.37;15.30;;;;;;;;;;10295463;28;20042;-80
2023/12/20 18:30:55;;;;;;;28.60;15.07;;;;;;;;;;10279156;28;20103;-80
2023/12/20 18:35:56;;;;;;;31.83;15.67;;;;;;;;;;10289305;28;20038;-79
2023/12/20 18:40:57;;;;;;;27.73;15.17;;;;;;;;;;10288173;28;20035;-81
2023/12/20 18:45:59;;;;;;;40.53;23.57;;;;;;;;;;10295255;28;20117;-79
2023/12/20 18:51:06;;;;;;;34.37;19.90;;;;;;;;;;10300419;28;20490;-80
2023/12/20 18:56:07;;;;;;;39.93;22.70;;;;;;;;;;10306048;28;20038;-79
2023/12/20 19:01:08;;;;;;;27.57;14.57;;;;;;;;;;10291678;28;20080;-81
2023/12/20 19:06:16;;;;;;;27.53;13.23;;;;;;;;;;10294290;28;20035;-81
2023/12/20 19:11:17;;;;;;;26.10;13.07;;;;;;;;;;10295492;28;20041;-81
2023/12/20 19:16:18;;;;;;;30.20;13.37;;;;;;;;;;10292551;28;20039;-80
2023/12/20 19:21:20;;;;;;;26.23;13.57;;;;;;;;;;10293524;28;20035;-79
2023/12/20 19:26:21;;;;;;;28.13;14.67;;;;;;;;;;10287889;28;20023;-81
2023/12/20 19:31:23;;;;;;;26.93;15.07;;;;;;;;;;10289188;28;20074;-82
2023/12/20 19:36:24;;;;;;;24.30;13.77;;;;;;;;;;10300563;28;20039;-82
2023/12/20 19:41:25;;;;;;;26.67;14.07;;;;;;;;;;10268379;28;20039;-81
2023/12/20 19:46:26;;;;;;;25.53;14.93;;;;;;;;;;10308410;28;20487;-81
2023/12/20 19:51:27;;;;;;;34.70;18.37;;;;;;;;;;10291771;28;20133;-81
2023/12/20 19:56:28;;;;;;;31.23;17.83;;;;;;;;;;10291338;28;20038;-80
2023/12/20 20:01:29;;;;;;;38.90;19.47;;;;;;;;;;10293742;28;20065;-79
2023/12/20 20:06:30;;;;;;;35.27;17.30;;;;;;;;;;10289250;28;20546;-79
2023/12/20 20:11:31;;;;;;;33.47;18.03;;;;;;;;;;10286723;28;20830;-79
2023/12/20 20:16:32;;;;;;;36.17;16.67;;;;;;;;;;10288726;28;20426;-83
2023/12/20 20:21:35;;;;;;;32.27;16.37;;;;;;;;;;10286481;28;20031;-80
2023/12/20 20:26:36;;;;;;;35.00;17.37;;;;;;;;;;10282084;28;20046;-79
2023/12/20 20:31:37;;;;;;;32.57;15.80;;;;;;;;;;10267875;28;20529;-78
2023/12/20 20:36:38;;;;;;;25.90;12.57;;;;;;;;;;10277606;28;20047;-79
2023/12/20 20:41:39;;;;;;;23.37;12.63;;;;;;;;;;10290028;28;20043;-79
2023/12/20 20:47:02;;;;;;;25.00;11.50;;;;;;;;;;10284924;28;20054;-79
2023/12/20 20:52:03;;;;;;;22.70;11.03;;;;;;;;;;10284213;28;20062;-82
2023/12/20 20:57:04;;;;;;;26.03;11.90;;;;;;;;;;10248098;28;20715;-81
2023/12/20 21:02:05;;;;;;;24.13;10.80;;;;;;;;;;10285859;28;20037;-79
2023/12/20 21:07:06;;;;;;;26.90;11.60;;;;;;;;;;10250898;28;20468;-78
2023/12/20 21:12:07;;;;;;;29.27;12.57;;;;;;;;;;10247824;28;20030;-81
2023/12/20 21:17:08;;;;;;;28.93;13.30;;;;;;;;;;10283955;28;20490;-83
2023/12/20 21:22:16;;;;;;;39.70;15.37;;;;;;;;;;10285948;28;20035;-79
2023/12/20 21:27:17;;;;;;;35.97;15.37;;;;;;;;;;10245123;28;20035;-79
2023/12/20 21:32:18;;;;;;;55.70;21.40;;;;;;;;;;10254875;28;20041;-79
2023/12/20 21:37:21;;;;;;;47.90;18.30;;;;;;;;;;10244861;29;20187;-78
2023/12/20 21:42:22;;;;;;;46.77;18.33;;;;;;;;;;10245097;28;20052;-79
2023/12/20 21:47:23;;;;;;;39.70;17.70;;;;;;;;;;10230743;28;20055;-80
2023/12/20 21:52:24;;;;;;;38.90;14.90;;;;;;;;;;10291388;28;20035;-82
2023/12/20 21:57:25;;;;;;;34.73;15.53;;;;;;;;;;10293891;28;20405;-81
2023/12/20 22:02:26;;;;;;;32.73;14.77;;;;;;;;;;10292406;28;20112;-82
2023/12/20 22:07:27;;;;;;;28.00;12.13;;;;;;;;;;10291407;28;20042;-79
2023/12/20 22:12:29;;;;;;;26.83;12.67;;;;;;;;;;10305858;28;20030;-79
2023/12/20 22:17:30;;;;;;;24.53;12.03;;;;;;;;;;10296080;28;20113;-79
2023/12/20 22:22:31;;;;;;;29.50;11.90;;;;;;;;;;10293770;28;20035;-79
2023/12/20 22:27:39;;;;;;;28.70;13.20;;;;;;;;;;10295484;28;20038;-79
2023/12/20 22:32:40;;;;;;;21.10;10.80;;;;;;;;;;10278445;28;20035;-79
2023/12/20 22:37:44;;;;;;;21.67;9.60;;;;;;;;;;10289837;28;20126;-79
2023/12/20 22:42:45;;;;;;;26.57;12.00;;;;;;;;;;10295532;28;20038;-83
2023/12/20 22:47:46;;;;;;;22.37;11.53;;;;;;;;;;10289977;28;20059;-81
2023/12/20 22:52:47;;;;;;;26.53;10.73;;;;;;;;;;10269549;28;20101;-80
2023/12/20 22:57:48;;;;;;;24.70;11.13;;;;;;;;;;10296751;28;20046;-81
2023/12/20 23:02:49;;;;;;;20.97;9.47;;;;;;;;;;10294399;28;20486;-82
2023/12/20 23:07:50;;;;;;;19.93;10.07;;;;;;;;;;10295479;28;20044;-80
2023/12/20 23:12:51;;;;;;;19.27;9.13;;;;;;;;;;10296851;28;20030;-79
2023/12/20 23:17:53;;;;;;;22.10;10.50;;;;;;;;;;10289546;28;20078;-79
2023/12/20 23:22:54;;;;;;;40.80;16.63;;;;;;;;;;10276464;28;20045;-79
2023/12/20 23:27:56;;;;;;;35.17;17.70;;;;;;;;;;10289597;28;20062;-81
2023/12/20 23:32:57;;;;;;;37.67;16.87;;;;;;;;;;10288619;28;20104;-79
2023/12/20 23:37:58;;;;;;;30.07;14.40;;;;;;;;;;10287971;28;20038;-83
2023/12/20 23:42:59;;;;;;;24.37;11.13;;;;;;;;;;10294482;28;20430;-79
2023/12/20 23:48:00;;;;;;;16.73;8.47;;;;;;;;;;10293414;28;20109;-79
2023/12/20 23:53:00;;;;;;;20.03;9.23;;;;;;;;;;10288348;28;20034;-80
2023/12/20 23:58:03;;;;;;;17.70;9.20;;;;;;;;;;10287918;28;20113;-81
